Time;durP1;ratioP1;P1;durP2;ratioP2;P2;SDS_P1;SDS_P2;PMS_P1;PMS_P2;Temp;Humidity;BMP_temperature;BMP_pressure;BME280_temperature;BME280_humidity;BME280_pressure;Samples;Min_cycle;Max_cycle;Signal;HPM_P1;HPM_P2
2021/03/28 00:03:20;;;;;;;30.30;9.48;;;;;;;;;;8324154;28;20735;-71
2021/03/28 00:07:45;;;;;;;47.83;13.05;;;;;;;;;;8323473;28;20360;-71
2021/03/28 00:12:27;;;;;;;10.48;4.15;;;;;;;;;;8326935;28;20466;-71
2021/03/28 00:16:47;;;;;;;12.05;4.60;;;;;;;;;;8325860;28;20348;-71
2021/03/28 00:21:08;;;;;;;9.18;4.47;;;;;;;;;;8323699;28;20372;-73
2021/03/28 00:25:33;;;;;;;10.50;4.40;;;;;;;;;;8307694;28;20032;-71
2021/03/28 00:30:05;;;;;;;9.18;4.10;;;;;;;;;;8307450;28;20486;-71
2021/03/28 00:34:25;;;;;;;10.27;4.63;;;;;;;;;;8325683;28;20400;-72
2021/03/28 00:38:39;;;;;;;7.82;4.40;;;;;;;;;;8322860;28;20044;-71
2021/03/28 00:42:47;;;;;;;9.57;4.75;;;;;;;;;;8325026;28;20056;-71
2021/03/28 00:46:52;;;;;;;10.15;5.40;;;;;;;;;;8305819;28;20070;-71
2021/03/28 00:51:19;;;;;;;12.77;4.53;;;;;;;;;;8322102;28;20457;-71
2021/03/28 00:55:37;;;;;;;19.08;7.78;;;;;;;;;;8322710;28;20402;-72
2021/03/28 01:00:11;;;;;;;12.30;5.22;;;;;;;;;;8307720;28;20354;-71
2021/03/28 01:04:47;;;;;;;12.77;5.57;;;;;;;;;;8304705;28;20049;-71
2021/03/28 01:10:06;;;;;;;12.25;5.00;;;;;;;;;;8289547;28;20490;-71
2021/03/28 01:14:26;;;;;;;8.02;4.05;;;;;;;;;;8259416;28;20483;-71
2021/03/28 01:18:37;;;;;;;10.52;3.95;;;;;;;;;;8291150;28;20044;-70
2021/03/28 01:23:43;;;;;;;11.40;3.80;;;;;;;;;;8291052;28;20052;-71
2021/03/28 01:27:57;;;;;;;8.27;3.60;;;;;;;;;;8263886;28;20053;-71
2021/03/28 01:32:17;;;;;;;7.80;3.20;;;;;;;;;;8305263;28;20490;-71
2021/03/28 01:36:33;;;;;;;14.48;5.30;;;;;;;;;;8288500;28;20360;-71
2021/03/28 01:41:28;;;;;;;19.48;6.25;;;;;;;;;;8272087;28;20383;-71
2021/03/28 01:45:52;;;;;;;16.60;7.45;;;;;;;;;;8273845;28;20350;-71
2021/03/28 01:50:35;;;;;;;15.65;7.47;;;;;;;;;;8304435;28;20439;-71
2021/03/28 01:55:15;;;;;;;16.60;7.97;;;;;;;;;;8271191;28;20053;-71
2021/03/28 02:00:08;;;;;;;18.50;7.13;;;;;;;;;;8292595;28;20404;-71
2021/03/28 02:04:31;;;;;;;14.98;7.13;;;;;;;;;;8296212;28;20489;-71
2021/03/28 02:08:51;;;;;;;15.60;6.75;;;;;;;;;;8310184;28;20471;-71
2021/03/28 02:13:03;;;;;;;14.45;6.55;;;;;;;;;;8277709;28;20044;-71
2021/03/28 02:17:46;;;;;;;12.00;5.63;;;;;;;;;;8294165;28;20525;-71
2021/03/28 02:22:32;;;;;;;8.55;4.45;;;;;;;;;;8295782;28;20455;-71
2021/03/28 02:27:06;;;;;;;9.48;4.50;;;;;;;;;;8294965;28;20390;-73
2021/03/28 02:31:22;;;;;;;10.80;5.13;;;;;;;;;;8296602;28;20474;-71
2021/03/28 02:35:50;;;;;;;20.55;8.80;;;;;;;;;;8293367;28;20410;-71
2021/03/28 02:40:05;;;;;;;42.75;16.92;;;;;;;;;;8293031;28;20413;-71
2021/03/28 02:44:41;;;;;;;15.85;7.90;;;;;;;;;;8293771;28;20455;-71
2021/03/28 02:49:08;;;;;;;14.75;6.80;;;;;;;;;;8290126;28;20459;-71
2021/03/28 02:53:23;;;;;;;13.20;5.75;;;;;;;;;;8294045;28;20063;-71
2021/03/28 02:58:02;;;;;;;14.00;4.47;;;;;;;;;;8294490;28;20459;-71
2021/03/28 03:02:36;;;;;;;13.82;4.45;;;;;;;;;;8294661;28;20585;-71
2021/03/28 03:07:12;;;;;;;11.80;4.65;;;;;;;;;;8293264;28;20382;-71
2021/03/28 03:11:41;;;;;;;10.27;3.53;;;;;;;;;;8291988;28;20075;-73
2021/03/28 03:16:07;;;;;;;8.60;3.78;;;;;;;;;;8293422;28;20379;-71
2021/03/28 03:21:08;;;;;;;13.45;3.60;;;;;;;;;;8282776;28;20053;-71
2021/03/28 03:25:50;;;;;;;10.93;4.13;;;;;;;;;;8295727;28;20502;-71
2021/03/28 03:30:08;;;;;;;8.23;3.97;;;;;;;;;;8308025;28;20044;-71
2021/03/28 03:34:38;;;;;;;8.15;3.55;;;;;;;;;;8293001;28;20474;-70
2021/03/28 03:38:48;;;;;;;6.38;3.75;;;;;;;;;;8292785;28;20486;-71
2021/03/28 03:43:35;;;;;;;11.38;3.58;;;;;;;;;;8307213;28;20459;-71
2021/03/28 03:48:26;;;;;;;9.13;3.95;;;;;;;;;;8292896;28;20060;-70
2021/03/28 03:53:07;;;;;;;7.32;4.13;;;;;;;;;;8292574;28;20359;-74
2021/03/28 03:57:29;;;;;;;8.50;4.03;;;;;;;;;;8291612;28;20353;-72
2021/03/28 04:02:11;;;;;;;10.05;4.80;;;;;;;;;;8294023;28;20481;-70
2021/03/28 04:06:30;;;;;;;9.18;3.72;;;;;;;;;;8290979;28;20072;-71
2021/03/28 04:10:36;;;;;;;;;;;;;;;;;;8291272;28;20497;-71
2021/03/28 04:15:17;;;;;;;14.55;5.32;;;;;;;;;;8291823;28;20315;-70
2021/03/28 04:19:59;;;;;;;15.77;4.63;;;;;;;;;;8290811;28;20398;-71
2021/03/28 04:24:13;;;;;;;7.40;4.13;;;;;;;;;;8291066;28;20462;-72
2021/03/28 04:28:51;;;;;;;8.48;4.30;;;;;;;;;;8273155;28;20048;-71
2021/03/28 04:33:07;;;;;;;9.77;4.47;;;;;;;;;;8292366;28;20048;-71
2021/03/28 04:37:40;;;;;;;11.68;4.82;;;;;;;;;;8291318;28;20387;-70
2021/03/28 04:42:14;;;;;;;10.73;4.22;;;;;;;;;;8282654;28;20379;-70
2021/03/28 04:46:30;;;;;;;7.13;4.07;;;;;;;;;;8275718;28;20470;-70
2021/03/28 04:50:58;;;;;;;9.52;4.22;;;;;;;;;;8257359;28;20351;-70
2021/03/28 04:55:36;;;;;;;12.27;4.10;;;;;;;;;;8259094;28;20045;-70
2021/03/28 04:59:59;;;;;;;56.90;17.67;;;;;;;;;;8258820;28;20477;-71
2021/03/28 05:04:12;;;;;;;14.10;6.60;;;;;;;;;;8257437;28;20463;-70
2021/03/28 05:08:42;;;;;;;8.95;4.28;;;;;;;;;;8257841;28;20468;-70
2021/03/28 05:13:47;;;;;;;26.67;11.65;;;;;;;;;;8257074;28;20372;-70
2021/03/28 05:18:39;;;;;;;27.75;10.05;;;;;;;;;;8238619;28;20348;-71
2021/03/28 05:23:14;;;;;;;21.40;7.15;;;;;;;;;;8255922;28;20411;-70
2021/03/28 05:27:53;;;;;;;27.25;9.25;;;;;;;;;;8258045;28;20463;-70
2021/03/28 05:32:15;;;;;;;9.02;4.28;;;;;;;;;;8258819;28;20501;-71
2021/03/28 05:37:17;;;;;;;14.65;4.97;;;;;;;;;;8263161;28;20518;-70
2021/03/28 05:42:19;;;;;;;7.18;3.50;;;;;;;;;;8263591;28;20479;-71
2021/03/28 05:47:15;;;;;;;8.15;3.70;;;;;;;;;;8262101;28;20076;-71
2021/03/28 05:51:45;;;;;;;10.85;4.43;;;;;;;;;;8263750;28;20368;-70
2021/03/28 05:56:32;;;;;;;11.02;5.28;;;;;;;;;;8263497;28;20490;-71
2021/03/28 06:01:13;;;;;;;8.55;4.65;;;;;;;;;;8262976;28;20052;-70
2021/03/28 06:06:05;;;;;;;16.63;5.38;;;;;;;;;;8263399;28;20384;-71
2021/03/28 06:10:27;;;;;;;14.15;4.80;;;;;;;;;;8262791;28;20467;-71
2021/03/28 06:14:41;;;;;;;9.13;3.92;;;;;;;;;;8261266;28;20483;-70
2021/03/28 06:19:23;;;;;;;11.10;4.43;;;;;;;;;;8261523;28;20079;-70
2021/03/28 06:24:01;;;;;;;12.02;4.80;;;;;;;;;;8263557;28;20463;-71
2021/03/28 06:28:32;;;;;;;13.48;4.72;;;;;;;;;;8261903;28;20057;-70
2021/03/28 06:33:23;;;;;;;13.00;5.57;;;;;;;;;;8278683;28;20378;-71
2021/03/28 06:37:46;;;;;;;24.25;8.60;;;;;;;;;;8249164;28;20390;-71
2021/03/28 06:42:24;;;;;;;10.38;4.45;;;;;;;;;;8261408;28;20075;-71
2021/03/28 06:46:50;;;;;;;;;;;;;;;;;;8261341;28;20464;-70
2021/03/28 06:51:16;;;;;;;10.52;4.97;;;;;;;;;;8261211;28;20266;-70
2021/03/28 06:55:40;;;;;;;10.98;3.92;;;;;;;;;;8261574;28;20368;-72
2021/03/28 07:00:08;;;;;;;11.25;4.78;;;;;;;;;;8260757;28;20357;-71
2021/03/28 07:05:00;;;;;;;;;;;;;;;;;;8262850;28;20423;-71
2021/03/28 07:09:26;;;;;;;12.20;5.95;;;;;;;;;;8224589;28;19967;-71
2021/03/28 07:13:36;;;;;;;12.70;6.47;;;;;;;;;;8244286;28;20057;-71
2021/03/28 07:18:19;;;;;;;12.43;6.15;;;;;;;;;;8260684;28;20407;-70
2021/03/28 07:23:03;;;;;;;14.90;6.22;;;;;;;;;;8262582;28;20329;-71
2021/03/28 07:27:57;;;;;;;18.52;7.85;;;;;;;;;;8260624;28;20363;-71
2021/03/28 07:32:20;;;;;;;8.90;5.32;;;;;;;;;;8258726;28;20383;-70
2021/03/28 07:36:33;;;;;;;9.15;4.72;;;;;;;;;;8259587;28;20106;-70
2021/03/28 07:41:18;;;;;;;11.73;7.97;;;;;;;;;;8258464;28;20045;-70
2021/03/28 07:45:57;;;;;;;9.57;4.57;;;;;;;;;;8260140;28;20092;-71
2021/03/28 07:50:58;;;;;;;9.40;6.00;;;;;;;;;;8286711;28;20443;-70
2021/03/28 07:55:24;;;;;;;29.10;12.45;;;;;;;;;;8292951;28;20075;-70
2021/03/28 07:59:50;;;;;;;7.05;4.88;;;;;;;;;;8293363;28;20379;-71
2021/03/28 08:04:26;;;;;;;11.82;6.18;;;;;;;;;;8293017;28;20461;-71
2021/03/28 08:09:00;;;;;;;10.32;6.22;;;;;;;;;;8293054;28;20447;-71
2021/03/28 08:13:53;;;;;;;6.90;4.55;;;;;;;;;;8290592;28;20363;-71
2021/03/28 08:18:35;;;;;;;9.30;5.13;;;;;;;;;;8290775;28;20459;-71
2021/03/28 08:22:57;;;;;;;9.77;4.95;;;;;;;;;;8288991;28;20478;-71
2021/03/28 08:27:39;;;;;;;9.02;4.43;;;;;;;;;;8290425;28;20402;-71
2021/03/28 08:32:40;;;;;;;6.45;3.75;;;;;;;;;;8288482;28;20062;-72
2021/03/28 08:37:17;;;;;;;9.07;3.95;;;;;;;;;;8273571;28;20379;-71
2021/03/28 08:41:53;;;;;;;7.55;3.88;;;;;;;;;;8291942;28;20082;-71
2021/03/28 08:46:17;;;;;;;6.95;3.05;;;;;;;;;;8289661;28;20106;-70
2021/03/28 08:51:27;;;;;;;9.57;4.53;;;;;;;;;;8289254;28;20091;-70
2021/03/28 08:56:08;;;;;;;7.40;3.42;;;;;;;;;;8289665;28;20375;-70
2021/03/28 09:00:26;;;;;;;10.00;4.03;;;;;;;;;;8289493;28;20383;-70
2021/03/28 09:04:40;;;;;;;10.38;4.20;;;;;;;;;;8289396;28;20379;-70
2021/03/28 09:09:06;;;;;;;8.15;4.53;;;;;;;;;;8290047;28;20348;-71
2021/03/28 09:13:41;;;;;;;6.53;2.85;;;;;;;;;;8290265;28;20138;-70
2021/03/28 09:18:36;;;;;;;9.40;3.40;;;;;;;;;;8291343;28;20462;-72
2021/03/28 09:23:13;;;;;;;9.95;4.15;;;;;;;;;;8288887;28;20382;-70
2021/03/28 09:27:49;;;;;;;10.88;3.80;;;;;;;;;;8290384;28;20475;-70
2021/03/28 09:32:03;;;;;;;21.90;8.70;;;;;;;;;;8289393;28;20056;-70
2021/03/28 09:36:17;;;;;;;7.18;3.25;;;;;;;;;;8291137;28;20076;-71
2021/03/28 09:40:51;;;;;;;9.40;3.10;;;;;;;;;;8288164;28;20427;-70
2021/03/28 09:45:45;;;;;;;5.03;2.80;;;;;;;;;;8288082;28;20359;-70
2021/03/28 09:50:09;;;;;;;13.65;5.38;;;;;;;;;;8289567;28;20491;-70
2021/03/28 09:54:55;;;;;;;6.88;3.50;;;;;;;;;;8289347;28;20490;-70
2021/03/28 10:00:08;;;;;;;26.30;10.63;;;;;;;;;;8287920;28;20386;-70
2021/03/28 10:04:48;;;;;;;14.50;4.43;;;;;;;;;;8186354;28;20473;-70
2021/03/28 10:09:19;;;;;;;6.45;2.42;;;;;;;;;;8182849;28;20356;-71
2021/03/28 10:14:02;;;;;;;24.75;9.50;;;;;;;;;;8289111;28;20359;-70
2021/03/28 10:18:29;;;;;;;6.13;2.85;;;;;;;;;;8289938;28;20060;-71
2021/03/28 10:23:07;;;;;;;6.07;2.50;;;;;;;;;;8296807;28;20451;-70
2021/03/28 10:27:23;;;;;;;8.73;3.60;;;;;;;;;;8294314;28;20044;-70
2021/03/28 10:31:40;;;;;;;5.35;2.80;;;;;;;;;;8294262;28;20486;-71
2021/03/28 10:35:57;;;;;;;5.22;2.60;;;;;;;;;;8278643;28;20443;-70
2021/03/28 10:40:24;;;;;;;4.80;2.10;;;;;;;;;;8292505;28;20482;-70
2021/03/28 10:45:04;;;;;;;10.40;4.47;;;;;;;;;;8292436;28;20459;-71
2021/03/28 10:49:36;;;;;;;5.95;3.10;;;;;;;;;;8292152;28;20375;-70
2021/03/28 10:54:06;;;;;;;4.18;2.00;;;;;;;;;;8294040;28;20347;-71
2021/03/28 10:58:58;;;;;;;8.35;2.63;;;;;;;;;;8295329;28;20406;-71
2021/03/28 11:03:46;;;;;;;5.90;2.17;;;;;;;;;;8308703;28;20045;-70
2021/03/28 11:08:47;;;;;;;8.87;2.70;;;;;;;;;;8293216;28;20363;-70
2021/03/28 11:13:11;;;;;;;46.03;23.63;;;;;;;;;;8293242;28;20381;-70
2021/03/28 11:17:50;;;;;;;8.48;2.42;;;;;;;;;;8294959;28;20071;-70
2021/03/28 11:22:34;;;;;;;6.95;2.22;;;;;;;;;;8308419;28;20352;-71
2021/03/28 11:26:43;;;;;;;6.38;2.30;;;;;;;;;;8291289;28;20053;-71
2021/03/28 11:31:13;;;;;;;3.60;1.73;;;;;;;;;;8293034;28;20390;-70
2021/03/28 11:35:54;;;;;;;3.97;1.77;;;;;;;;;;8291920;28;20082;-70
2021/03/28 11:40:35;;;;;;;6.53;2.05;;;;;;;;;;8284302;28;20478;-71
2021/03/28 11:45:04;;;;;;;8.38;2.75;;;;;;;;;;8291460;28;20356;-70
2021/03/28 11:49:15;;;;;;;5.88;2.10;;;;;;;;;;8291949;28;20349;-71
2021/03/28 11:53:32;;;;;;;10.15;5.15;;;;;;;;;;8294525;28;20482;-70
2021/03/28 11:57:39;;;;;;;4.47;2.47;;;;;;;;;;8290259;28;20417;-70
2021/03/28 12:01:55;;;;;;;5.15;2.30;;;;;;;;;;8291137;28;20352;-69
2021/03/28 12:06:08;;;;;;;8.68;2.70;;;;;;;;;;8293584;28;20351;-70
2021/03/28 12:10:28;;;;;;;7.72;2.90;;;;;;;;;;8291643;28;20044;-70
2021/03/28 12:14:35;;;;;;;10.77;3.90;;;;;;;;;;8289668;28;20367;-70
2021/03/28 12:18:49;;;;;;;26.52;10.70;;;;;;;;;;8289070;28;20052;-70
2021/03/28 12:22:57;;;;;;;12.20;4.78;;;;;;;;;;8291284;28;20359;-70
2021/03/28 12:27:18;;;;;;;7.88;2.83;;;;;;;;;;8290771;28;20476;-70
2021/03/28 12:31:34;;;;;;;7.65;2.75;;;;;;;;;;8288972;28;20358;-70
2021/03/28 12:35:47;;;;;;;13.85;4.32;;;;;;;;;;8273510;28;20048;-70
2021/03/28 12:39:57;;;;;;;7.93;3.00;;;;;;;;;;8290623;28;20482;-71
2021/03/28 12:44:11;;;;;;;7.43;2.80;;;;;;;;;;8289725;28;20471;-71
2021/03/28 12:48:31;;;;;;;12.27;5.20;;;;;;;;;;8291029;28;20467;-69
2021/03/28 12:52:48;;;;;;;10.18;4.15;;;;;;;;;;8275540;28;20355;-70
2021/03/28 12:57:05;;;;;;;8.75;4.30;;;;;;;;;;8290140;28;20483;-70
2021/03/28 13:01:37;;;;;;;11.82;3.40;;;;;;;;;;8288837;28;20439;-69
2021/03/28 13:06:03;;;;;;;11.60;4.85;;;;;;;;;;8287473;28;20386;-69
2021/03/28 13:10:43;;;;;;;9.15;3.85;;;;;;;;;;8289851;28;20499;-70
2021/03/28 13:14:50;;;;;;;8.35;3.63;;;;;;;;;;8289808;28;20360;-69
2021/03/28 13:18:54;;;;;;;7.68;3.38;;;;;;;;;;8287918;28;20122;-68
2021/03/28 13:23:32;;;;;;;9.18;3.88;;;;;;;;;;8289056;28;20374;-68
2021/03/28 13:27:37;;;;;;;7.65;3.10;;;;;;;;;;8289752;28;20368;-69
2021/03/28 13:31:52;;;;;;;8.15;3.53;;;;;;;;;;8285880;28;20490;-69
2021/03/28 13:35:58;;;;;;;5.82;2.47;;;;;;;;;;8289588;28;20386;-68
2021/03/28 13:40:14;;;;;;;10.93;3.17;;;;;;;;;;8287817;28;20358;-68
2021/03/28 13:44:26;;;;;;;6.68;2.88;;;;;;;;;;8290517;28;20466;-68
2021/03/28 13:48:31;;;;;;;7.10;3.05;;;;;;;;;;8287842;28;20502;-69
2021/03/28 13:52:43;;;;;;;11.82;4.20;;;;;;;;;;8290067;28;20044;-69
2021/03/28 13:56:54;;;;;;;5.43;2.50;;;;;;;;;;8294042;28;20471;-69
2021/03/28 14:01:33;;;;;;;6.28;2.30;;;;;;;;;;8294316;28;20332;-69
2021/03/28 14:05:41;;;;;;;7.30;2.90;;;;;;;;;;8294378;28;20070;-69
2021/03/28 14:10:05;;;;;;;5.60;2.33;;;;;;;;;;8295881;28;20360;-67
2021/03/28 14:14:36;;;;;;;9.10;2.80;;;;;;;;;;8297087;28;20137;-69
2021/03/28 14:18:50;;;;;;;9.50;3.80;;;;;;;;;;8294819;28;20497;-70
2021/03/28 14:23:24;;;;;;;7.30;3.40;;;;;;;;;;8293664;28;20406;-70
2021/03/28 14:27:37;;;;;;;10.70;4.85;;;;;;;;;;8293252;28;20368;-69
2021/03/28 14:31:45;;;;;;;9.05;3.67;;;;;;;;;;8294720;28;20467;-68
2021/03/28 14:36:29;;;;;;;14.60;7.45;;;;;;;;;;8292842;28;20360;-68
2021/03/28 14:40:52;;;;;;;174.07;103.43;;;;;;;;;;8287443;28;20620;-69
2021/03/28 14:45:09;;;;;;;196.27;120.97;;;;;;;;;;8268588;28;20352;-68
2021/03/28 14:49:36;;;;;;;341.95;206.25;;;;;;;;;;8291839;28;20463;-69
2021/03/28 14:54:18;;;;;;;296.00;133.80;;;;;;;;;;8294133;28;20448;-69
2021/03/28 14:58:51;;;;;;;323.85;141.65;;;;;;;;;;8294000;28;20479;-70
2021/03/28 15:03:17;;;;;;;135.27;54.10;;;;;;;;;;8293642;28;20052;-70
2021/03/28 15:07:47;;;;;;;198.43;81.28;;;;;;;;;;8292972;28;20456;-68
2021/03/28 15:12:00;;;;;;;94.60;40.38;;;;;;;;;;8293607;28;20371;-69
2021/03/28 15:17:01;;;;;;;18.88;8.50;;;;;;;;;;8292753;28;20374;-68
2021/03/28 15:21:31;;;;;;;19.90;9.32;;;;;;;;;;8285255;28;20068;-69
2021/03/28 15:25:49;;;;;;;72.80;34.05;;;;;;;;;;8292695;28;20052;-69
2021/03/28 15:30:12;;;;;;;23.33;8.43;;;;;;;;;;8292171;28;20466;-71
2021/03/28 15:34:36;;;;;;;78.28;35.80;;;;;;;;;;8291861;28;20094;-69
2021/03/28 15:38:56;;;;;;;11.10;5.18;;;;;;;;;;8294006;28;20367;-69
2021/03/28 15:43:32;;;;;;;12.18;4.10;;;;;;;;;;8292841;28;20355;-70
2021/03/28 15:48:03;;;;;;;27.35;19.65;;;;;;;;;;8292088;28;20475;-69
2021/03/28 15:53:17;;;;;;;52.38;24.58;;;;;;;;;;8291580;28;20068;-69
2021/03/28 15:57:45;;;;;;;17.58;9.50;;;;;;;;;;8268419;28;20356;-67
2021/03/28 16:01:55;;;;;;;15.52;5.70;;;;;;;;;;8293291;28;20459;-67
2021/03/28 16:06:26;;;;;;;11.20;5.55;;;;;;;;;;8291585;28;20383;-67
2021/03/28 16:10:52;;;;;;;15.63;5.40;;;;;;;;;;8292019;28;20390;-69
2021/03/28 16:15:36;;;;;;;17.52;7.10;;;;;;;;;;8291986;28;20370;-68
2021/03/28 16:20:19;;;;;;;12.43;4.75;;;;;;;;;;8290412;28;20379;-68
2021/03/28 16:24:41;;;;;;;18.67;6.95;;;;;;;;;;8291265;28;20394;-68
2021/03/28 16:29:32;;;;;;;19.00;8.43;;;;;;;;;;8291513;28;20375;-69
2021/03/28 16:33:58;;;;;;;132.25;46.42;;;;;;;;;;8272592;28;20379;-69
2021/03/28 16:38:39;;;;;;;19.25;7.32;;;;;;;;;;8290884;28;20474;-68
2021/03/28 16:43:20;;;;;;;102.55;39.50;;;;;;;;;;8293021;28;20071;-68
2021/03/28 16:47:30;;;;;;;33.72;14.40;;;;;;;;;;8288105;28;20052;-69
2021/03/28 16:51:49;;;;;;;48.90;19.23;;;;;;;;;;8290939;28;20052;-68
2021/03/28 16:55:55;;;;;;;74.43;30.80;;;;;;;;;;8290462;28;20052;-68
2021/03/28 17:00:15;;;;;;;184.38;71.90;;;;;;;;;;8269126;28;20067;-68
2021/03/28 17:04:36;;;;;;;151.63;61.03;;;;;;;;;;8289410;28;20395;-69
2021/03/28 17:08:46;;;;;;;108.15;46.33;;;;;;;;;;8290519;28;20504;-68
2021/03/28 17:12:51;;;;;;;111.68;42.90;;;;;;;;;;8289856;28;20498;-69
2021/03/28 17:17:17;;;;;;;79.43;31.35;;;;;;;;;;8289088;28;20463;-68
2021/03/28 17:21:36;;;;;;;55.58;24.20;;;;;;;;;;8289455;28;20079;-69
2021/03/28 17:25:47;;;;;;;53.28;24.45;;;;;;;;;;8290372;28;20920;-70
2021/03/28 17:29:59;;;;;;;46.22;23.33;;;;;;;;;;8293063;28;20466;-68
2021/03/28 17:34:06;;;;;;;47.25;20.35;;;;;;;;;;8297084;28;20485;-68
2021/03/28 17:38:19;;;;;;;21.63;8.88;;;;;;;;;;8297088;28;20467;-68
2021/03/28 17:42:37;;;;;;;30.27;11.88;;;;;;;;;;8296537;28;20056;-68
2021/03/28 17:46:45;;;;;;;27.00;9.27;;;;;;;;;;8295996;28;20060;-68
2021/03/28 17:51:05;;;;;;;29.52;9.57;;;;;;;;;;8230898;28;20476;-68
2021/03/28 17:55:09;;;;;;;31.40;9.82;;;;;;;;;;8231245;28;20480;-69
2021/03/28 17:59:14;;;;;;;37.92;9.95;;;;;;;;;;8231871;28;20053;-68
2021/03/28 18:03:22;;;;;;;70.65;17.95;;;;;;;;;;8228549;28;20355;-68
2021/03/28 18:07:26;;;;;;;95.60;30.27;;;;;;;;;;8244589;28;20487;-67
2021/03/28 18:11:38;;;;;;;83.55;24.88;;;;;;;;;;8245219;28;20464;-67
2021/03/28 18:15:42;;;;;;;92.60;30.52;;;;;;;;;;8229646;28;20080;-69
2021/03/28 18:19:47;;;;;;;56.55;17.88;;;;;;;;;;8244533;28;20468;-68
2021/03/28 18:23:56;;;;;;;51.28;17.00;;;;;;;;;;8228093;28;20049;-68
2021/03/28 18:28:01;;;;;;;138.57;44.22;;;;;;;;;;8227995;28;20457;-69
2021/03/28 18:32:26;;;;;;;125.13;43.10;;;;;;;;;;8227439;28;20357;-69
2021/03/28 18:36:38;;;;;;;165.00;59.17;;;;;;;;;;8243179;28;20049;-67
2021/03/28 18:40:53;;;;;;;189.80;66.63;;;;;;;;;;8243553;28;20357;-68
2021/03/28 18:45:35;;;;;;;215.23;78.95;;;;;;;;;;8228082;28;20368;-68
2021/03/28 18:49:49;;;;;;;160.07;53.13;;;;;;;;;;8277446;28;20393;-68
2021/03/28 18:53:56;;;;;;;137.18;38.85;;;;;;;;;;8294247;28;20455;-67
2021/03/28 18:58:02;;;;;;;147.23;38.22;;;;;;;;;;8294366;28;20417;-67
2021/03/28 19:02:51;;;;;;;210.32;57.30;;;;;;;;;;8294284;28;20371;-69
2021/03/28 19:07:13;;;;;;;87.88;28.85;;;;;;;;;;8247411;28;20401;-67
2021/03/28 19:11:37;;;;;;;62.40;26.15;;;;;;;;;;8293257;28;20443;-67
2021/03/28 19:15:42;;;;;;;92.03;38.47;;;;;;;;;;8294386;28;20477;-68
2021/03/28 19:20:05;;;;;;;141.63;47.70;;;;;;;;;;8294641;28;20392;-68
2021/03/28 19:24:29;;;;;;;242.07;65.82;;;;;;;;;;8293597;28;20497;-67
2021/03/28 19:28:34;;;;;;;161.43;47.92;;;;;;;;;;8295563;28;20470;-67
2021/03/28 19:32:38;;;;;;;115.28;36.72;;;;;;;;;;8293649;28;20471;-67
2021/03/28 19:36:51;;;;;;;106.47;33.90;;;;;;;;;;8292519;28;20501;-68
2021/03/28 19:41:31;;;;;;;147.13;40.65;;;;;;;;;;8290824;28;20481;-67
2021/03/28 19:46:00;;;;;;;111.65;31.15;;;;;;;;;;8292172;28;20467;-67
2021/03/28 19:50:17;;;;;;;66.22;23.55;;;;;;;;;;8291206;28;20482;-67
2021/03/28 19:54:26;;;;;;;94.60;34.20;;;;;;;;;;8294310;28;20366;-67
2021/03/28 19:58:30;;;;;;;112.70;35.47;;;;;;;;;;8291869;28;20389;-68
2021/03/28 20:02:52;;;;;;;101.15;34.35;;;;;;;;;;8295558;28;20477;-66
2021/03/28 20:06:56;;;;;;;102.30;33.75;;;;;;;;;;8276445;28;20474;-67
2021/03/28 20:11:11;;;;;;;;;;;;;;;;;;8293001;28;20363;-67
2021/03/28 20:15:16;;;;;;;75.13;28.15;;;;;;;;;;8291713;28;20274;-66
2021/03/28 20:19:23;;;;;;;108.88;33.15;;;;;;;;;;8291472;28;20209;-68
2021/03/28 20:23:29;;;;;;;80.50;31.20;;;;;;;;;;8291446;28;20044;-66
2021/03/28 20:27:35;;;;;;;101.47;35.70;;;;;;;;;;8293738;28;20451;-67
2021/03/28 20:31:44;;;;;;;121.63;39.05;;;;;;;;;;8291176;28;20348;-66
2021/03/28 20:35:59;;;;;;;106.50;36.78;;;;;;;;;;8291661;28;20471;-66
2021/03/28 20:40:06;;;;;;;101.15;37.28;;;;;;;;;;8291788;28;20379;-66
2021/03/28 20:44:19;;;;;;;109.20;38.15;;;;;;;;;;8292879;28;20048;-66
2021/03/28 20:48:33;;;;;;;98.72;37.97;;;;;;;;;;8288601;28;20414;-66
2021/03/28 20:52:41;;;;;;;154.27;46.42;;;;;;;;;;8289737;28;20474;-67
2021/03/28 20:56:52;;;;;;;131.38;43.70;;;;;;;;;;8291327;28;20455;-66
2021/03/28 21:00:56;;;;;;;118.22;40.20;;;;;;;;;;8290372;28;20367;-66
2021/03/28 21:05:01;;;;;;;124.15;41.40;;;;;;;;;;8290221;28;20487;-66
2021/03/28 21:09:12;;;;;;;98.30;35.28;;;;;;;;;;8288606;28;20631;-66
2021/03/28 21:13:23;;;;;;;85.57;32.03;;;;;;;;;;8291126;28;20501;-67
2021/03/28 21:17:32;;;;;;;89.85;32.40;;;;;;;;;;8288348;28;20060;-66
2021/03/28 21:21:41;;;;;;;91.72;31.60;;;;;;;;;;8291571;28;20048;-66
2021/03/28 21:25:57;;;;;;;96.93;32.42;;;;;;;;;;8289249;28;20502;-65
2021/03/28 21:30:03;;;;;;;110.28;36.90;;;;;;;;;;8289838;28;20070;-66
2021/03/28 21:34:08;;;;;;;117.82;36.30;;;;;;;;;;8290582;28;20115;-66
2021/03/28 21:38:18;;;;;;;118.65;36.25;;;;;;;;;;8288397;28;20055;-65
2021/03/28 21:42:27;;;;;;;115.35;36.05;;;;;;;;;;8290085;28;20444;-68
2021/03/28 21:46:49;;;;;;;133.55;39.95;;;;;;;;;;8288276;28;20485;-66
2021/03/28 21:51:00;;;;;;;120.00;37.88;;;;;;;;;;8289249;28;20070;-67
2021/03/28 21:55:23;;;;;;;137.88;39.75;;;;;;;;;;8288175;28;20048;-66
2021/03/28 21:59:29;;;;;;;136.68;39.45;;;;;;;;;;8290237;28;20052;-67
2021/03/28 22:03:35;;;;;;;127.00;38.13;;;;;;;;;;8289257;28;20488;-67
2021/03/28 22:07:50;;;;;;;126.88;37.63;;;;;;;;;;8288936;28;20075;-66
2021/03/28 22:11:55;;;;;;;119.30;34.17;;;;;;;;;;8289840;28;20474;-66
2021/03/28 22:16:01;;;;;;;117.35;35.25;;;;;;;;;;8293348;28;20497;-66
2021/03/28 22:20:14;;;;;;;104.32;32.90;;;;;;;;;;8297321;28;20362;-66
2021/03/28 22:24:25;;;;;;;122.50;35.03;;;;;;;;;;8294210;28;20368;-67
2021/03/28 22:28:29;;;;;;;103.55;34.25;;;;;;;;;;8296768;28;20064;-67
2021/03/28 22:32:34;;;;;;;111.40;37.35;;;;;;;;;;8277181;28;20406;-65
2021/03/28 22:36:42;;;;;;;100.18;33.75;;;;;;;;;;8293231;28;20455;-71
2021/03/28 22:40:47;;;;;;;111.40;34.63;;;;;;;;;;8293301;28;20455;-66
2021/03/28 22:44:55;;;;;;;92.10;30.80;;;;;;;;;;8294731;28;20524;-67
2021/03/28 22:49:01;;;;;;;94.55;33.47;;;;;;;;;;8295125;28;20087;-66
2021/03/28 22:53:07;;;;;;;98.85;30.02;;;;;;;;;;8293943;28;20041;-66
2021/03/28 22:57:11;;;;;;;93.43;30.52;;;;;;;;;;8259308;28;20044;-66
2021/03/28 23:01:24;;;;;;;94.20;30.27;;;;;;;;;;8293953;28;20468;-67
2021/03/28 23:05:28;;;;;;;94.85;29.80;;;;;;;;;;8293319;28;20482;-68
2021/03/28 23:09:39;;;;;;;93.88;29.67;;;;;;;;;;8293493;28;20367;-66
2021/03/28 23:13:44;;;;;;;82.10;28.75;;;;;;;;;;8294130;28;20478;-66
2021/03/28 23:17:55;;;;;;;87.95;29.38;;;;;;;;;;8294236;28;20356;-67
2021/03/28 23:22:08;;;;;;;92.28;28.70;;;;;;;;;;8293073;28;20371;-66
2021/03/28 23:26:25;;;;;;;84.53;29.15;;;;;;;;;;8292524;28;20044;-66
2021/03/28 23:30:29;;;;;;;78.57;27.08;;;;;;;;;;8291475;28;20487;-65
2021/03/28 23:34:35;;;;;;;86.97;30.35;;;;;;;;;;8294326;28;20505;-67
2021/03/28 23:38:39;;;;;;;82.35;28.77;;;;;;;;;;8294519;28;20060;-67
2021/03/28 23:42:44;;;;;;;78.60;26.40;;;;;;;;;;8293291;28;20483;-67
2021/03/28 23:46:58;;;;;;;74.85;26.30;;;;;;;;;;8291777;28;20063;-66
2021/03/28 23:51:03;;;;;;;76.65;28.15;;;;;;;;;;8294635;28;20474;-66
2021/03/28 23:55:12;;;;;;;65.18;24.63;;;;;;;;;;8291130;28;20460;-66
2021/03/28 23:59:18;;;;;;;69.22;24.52;;;;;;;;;;8291787;28;20040;-66
